Time;durP1;ratioP1;P1;durP2;ratioP2;P2;SDS_P1;SDS_P2;PMS_P1;PMS_P2;Temp;Humidity;BMP_temperature;BMP_pressure;BME280_temperature;BME280_humidity;BME280_pressure;Samples;Min_cycle;Max_cycle;Signal;HPM_P1;HPM_P2
2024/03/02 00:00:21;;;;;;;1.38;0.45;;;;;;;29.85;nan;97236.00;7395547;19;20015;-53
2024/03/02 00:02:51;;;;;;;0.30;0.30;;;;;;;29.43;nan;97234.72;7396175;19;20521;-52
2024/03/02 00:05:18;;;;;;;0.15;0.15;;;;;;;29.48;nan;97227.69;7393866;19;20363;-52
2024/03/02 00:07:46;;;;;;;0.30;0.30;;;;;;;29.44;nan;97232.56;7393022;19;20017;-53
2024/03/02 00:10:18;;;;;;;1.95;0.65;;;;;;;29.01;nan;97225.47;7393126;19;20015;-53
2024/03/02 00:12:47;;;;;;;0.13;0.13;;;;;;;28.94;nan;97231.66;7395841;19;20014;-52
2024/03/02 00:15:16;;;;;;;0.20;0.20;;;;;;;28.90;nan;97228.66;7394342;19;20036;-53
2024/03/02 00:17:42;;;;;;;0.73;0.20;;;;;;;28.58;nan;97224.72;7394821;19;20121;-52
2024/03/02 00:20:10;;;;;;;0.50;0.40;;;;;;;28.53;nan;97224.53;7394612;19;20010;-52
2024/03/02 00:22:37;;;;;;;2.25;0.90;;;;;;;28.35;nan;97223.19;7397031;19;20007;-52
2024/03/02 00:25:03;;;;;;;0.20;0.20;;;;;;;28.09;nan;97225.13;7394123;19;20354;-52
2024/03/02 00:27:29;;;;;;;0.80;0.35;;;;;;;27.53;nan;97226.56;7394265;19;20013;-52
2024/03/02 00:29:56;;;;;;;0.90;0.40;;;;;;;27.63;nan;97221.25;7394133;19;20563;-52
2024/03/02 00:32:22;;;;;;;2.03;0.85;;;;;;;27.46;nan;97219.16;7398005;19;20126;-53
2024/03/02 00:34:49;;;;;;;0.35;0.35;;;;;;;28.32;nan;97225.25;7394142;19;20494;-52
2024/03/02 00:37:15;;;;;;;0.85;0.65;;;;;;;28.28;nan;97227.97;7394307;19;20014;-52
2024/03/02 00:39:41;;;;;;;0.65;0.60;;;;;;;27.82;nan;97219.78;7394392;19;20080;-53
2024/03/02 00:42:08;;;;;;;2.60;0.93;;;;;;;27.99;nan;97222.63;7396165;19;20028;-53
2024/03/02 00:44:35;;;;;;;7.80;0.95;;;;;;;28.03;nan;97224.88;7393861;19;20010;-53
2024/03/02 00:47:02;;;;;;;0.55;0.50;;;;;;;28.14;nan;97233.19;7393353;19;20011;-53
2024/03/02 00:49:28;;;;;;;0.40;0.40;;;;;;;28.22;nan;97239.19;7392181;19;20010;-53
2024/03/02 00:51:56;;;;;;;0.73;0.73;;;;;;;28.13;nan;97237.44;7395273;19;20465;-53
2024/03/02 00:54:26;;;;;;;0.50;0.25;;;;;;;27.85;nan;97229.91;7392949;19;20025;-53
2024/03/02 00:56:54;;;;;;;0.63;0.63;;;;;;;28.19;nan;97216.88;7393026;19;20025;-52
2024/03/02 00:59:21;;;;;;;0.65;0.63;;;;;;;28.09;nan;97225.84;7393797;19;20024;-53
2024/03/02 01:01:49;;;;;;;1.85;0.82;;;;;;;28.35;nan;97223.91;7395104;19;20084;-53
2024/03/02 01:04:15;;;;;;;0.30;0.30;;;;;;;28.44;nan;97219.94;7393656;19;20018;-52
2024/03/02 01:06:43;;;;;;;1.38;0.93;;;;;;;28.39;nan;97215.47;7392936;19;20021;-52
2024/03/02 01:09:09;;;;;;;1.90;0.95;;;;;;;28.43;nan;97218.47;7393405;19;20021;-52
2024/03/02 01:11:35;;;;;;;0.20;0.20;;;;;;;28.63;nan;97223.47;7393133;19;20031;-53
2024/03/02 01:14:01;;;;;;;0.65;0.65;;;;;;;28.56;nan;97216.03;7392639;19;20017;-52
2024/03/02 01:16:27;;;;;;;1.27;0.55;;;;;;;28.51;nan;97221.63;7394624;19;20113;-53
2024/03/02 01:18:54;;;;;;;1.30;1.20;;;;;;;28.41;nan;97209.78;7391983;19;20066;-52
2024/03/02 01:21:20;;;;;;;1.15;1.08;;;;;;;28.45;nan;97215.69;7389246;19;20459;-53
2024/03/02 01:23:46;;;;;;;5.68;1.30;;;;;;;28.56;nan;97218.88;7391186;19;20010;-53
2024/03/02 01:26:12;;;;;;;0.75;0.75;;;;;;;28.99;nan;97218.94;7392236;19;20475;-53
2024/03/02 01:28:38;;;;;;;1.75;0.68;;;;;;;28.85;nan;97212.72;7394083;19;20304;-52
2024/03/02 01:31:04;;;;;;;1.23;0.90;;;;;;;28.20;nan;97219.09;7394172;19;20015;-53
2024/03/02 01:33:31;;;;;;;0.50;0.50;;;;;;;28.18;nan;97207.56;7390761;19;20462;-53
2024/03/02 01:35:57;;;;;;;0.60;0.60;;;;;;;28.08;nan;97212.19;7392827;19;20014;-53
2024/03/02 01:38:23;;;;;;;1.20;0.73;;;;;;;28.02;nan;97211.97;7392110;19;20011;-53
2024/03/02 01:40:49;;;;;;;1.25;0.95;;;;;;;27.77;nan;97207.47;7391405;19;20006;-53
2024/03/02 01:43:15;;;;;;;0.82;0.52;;;;;;;27.20;nan;97203.81;7391551;19;20007;-52
2024/03/02 01:45:42;;;;;;;18.00;1.33;;;;;;;27.92;nan;97211.56;7392301;19;20014;-53
2024/03/02 01:48:08;;;;;;;1.00;0.60;;;;;;;26.80;nan;97214.34;7391921;19;20014;-53
2024/03/02 01:50:34;;;;;;;6.90;1.95;;;;;;;27.78;nan;97206.06;7393533;19;20015;-53
2024/03/02 01:53:02;;;;;;;0.63;0.52;;;;;;;27.70;nan;97211.47;7391078;19;20017;-52
2024/03/02 01:55:32;;;;;;;2.67;1.77;;;;;;;27.26;nan;97204.03;7391985;19;20010;-53
2024/03/02 01:57:59;;;;;;;4.88;1.92;;;;;;;26.62;nan;97205.00;7391818;19;20014;-53
2024/03/02 02:00:26;;;;;;;6.47;2.10;;;;;;;26.48;nan;97202.28;7390726;19;20331;-52
2024/03/02 02:02:52;;;;;;;4.57;2.05;;;;;;;26.47;nan;97212.22;7396949;19;20028;-53
2024/03/02 02:05:18;;;;;;;6.97;1.55;;;;;;;26.45;nan;97197.13;7399724;19;20019;-52
2024/03/02 02:07:45;;;;;;;6.70;0.85;;;;;;;26.69;nan;97210.31;7397736;19;20015;-53
2024/03/02 02:10:11;;;;;;;2.80;0.88;;;;;;;26.76;nan;97203.50;7400132;19;20015;-53
2024/03/02 02:12:37;;;;;;;1.38;0.57;;;;;;;26.68;nan;97197.41;7400745;19;20070;-53
2024/03/02 02:15:21;;;;;;;2.75;2.10;;;;;;;26.67;nan;97195.94;7398544;19;20006;-52
2024/03/02 02:17:47;;;;;;;0.47;0.47;;;;;;;26.81;nan;97196.53;7398738;19;20010;-52
2024/03/02 02:20:13;;;;;;;1.63;1.25;;;;;;;27.06;nan;97201.13;7399264;19;20011;-52
2024/03/02 02:22:39;;;;;;;14.95;1.42;;;;;;;26.94;nan;97201.38;7398320;19;20010;-52
2024/03/02 02:25:06;;;;;;;2.00;0.93;;;;;;;27.26;nan;97198.31;7398206;19;20029;-52
2024/03/02 02:27:32;;;;;;;3.03;1.17;;;;;;;27.05;nan;97199.66;7398069;19;20015;-52
2024/03/02 02:29:58;;;;;;;3.85;1.02;;;;;;;27.23;nan;97193.91;7398986;19;20041;-53
2024/03/02 02:32:24;;;;;;;4.38;1.15;;;;;;;26.91;nan;97191.25;7401702;19;20039;-53
2024/03/02 02:34:53;;;;;;;8.48;1.73;;;;;;;27.17;nan;97185.09;7402902;19;20033;-52
2024/03/02 02:37:19;;;;;;;3.28;0.70;;;;;;;27.22;nan;97192.47;7399098;19;20010;-52
2024/03/02 02:39:46;;;;;;;1.48;0.75;;;;;;;27.52;nan;97185.06;7397124;19;20477;-52
2024/03/02 02:42:12;;;;;;;3.17;1.23;;;;;;;27.42;nan;97184.69;7397844;19;20015;-53
2024/03/02 02:44:38;;;;;;;5.60;2.00;;;;;;;27.62;nan;97182.59;7400874;19;20015;-52
2024/03/02 02:47:05;;;;;;;2.30;0.75;;;;;;;28.04;nan;97178.44;7396748;19;20015;-52
2024/03/02 02:49:31;;;;;;;1.05;1.05;;;;;;;27.68;nan;97171.38;7397817;19;20007;-52
2024/03/02 02:51:57;;;;;;;2.72;2.00;;;;;;;27.55;nan;97173.03;7401124;19;20018;-53
2024/03/02 02:54:23;;;;;;;4.57;0.70;;;;;;;27.75;nan;97170.94;7400398;19;20010;-52
2024/03/02 02:56:49;;;;;;;1.60;1.40;;;;;;;27.76;nan;97171.69;7397929;19;20031;-52
2024/03/02 02:59:15;;;;;;;1.13;1.02;;;;;;;27.59;nan;97172.47;7398055;19;20033;-52
2024/03/02 03:01:41;;;;;;;4.97;1.65;;;;;;;27.82;nan;97171.91;7400088;19;20482;-52
2024/03/02 03:04:07;;;;;;;0.75;0.60;;;;;;;27.82;nan;97174.75;7398377;19;20487;-52
2024/03/02 03:06:33;;;;;;;4.28;0.63;;;;;;;27.82;nan;97169.03;7396403;19;20018;-52
2024/03/02 03:08:59;;;;;;;1.77;1.02;;;;;;;28.12;nan;97158.69;7395686;19;20454;-52
2024/03/02 03:11:26;;;;;;;4.78;1.42;;;;;;;28.50;nan;97157.13;7395836;19;20663;-52
2024/03/02 03:13:54;;;;;;;1.23;0.60;;;;;;;28.12;nan;97161.56;7396123;19;20060;-52
2024/03/02 03:16:21;;;;;;;0.60;0.50;;;;;;;28.32;nan;97156.53;7397029;19;20011;-52
2024/03/02 03:18:47;;;;;;;3.50;1.45;;;;;;;28.41;nan;97157.53;7396446;19;20032;-52
2024/03/02 03:21:13;;;;;;;1.55;1.38;;;;;;;28.27;nan;97149.19;7396425;19;20055;-52
2024/03/02 03:23:39;;;;;;;3.63;1.23;;;;;;;28.54;nan;97154.41;7396407;19;20014;-52
2024/03/02 03:26:05;;;;;;;5.20;0.50;;;;;;;28.57;nan;97146.66;7394966;19;20013;-52
2024/03/02 03:28:32;;;;;;;4.03;0.80;;;;;;;28.20;nan;97150.38;7396009;19;20029;-52
2024/03/02 03:30:58;;;;;;;6.80;1.48;;;;;;;27.60;nan;97153.91;7397148;19;20026;-52
2024/03/02 03:33:24;;;;;;;0.68;0.65;;;;;;;27.79;nan;97151.06;7393876;19;20002;-52
2024/03/02 03:35:50;;;;;;;3.40;0.85;;;;;;;27.56;nan;97148.06;7395283;19;20320;-52
2024/03/02 03:38:16;;;;;;;1.95;1.30;;;;;;;27.40;nan;97144.56;7395811;19;20014;-52
2024/03/02 03:40:42;;;;;;;1.88;0.95;;;;;;;27.59;nan;97143.88;7396737;19;20042;-52
2024/03/02 03:43:08;;;;;;;0.50;0.25;;;;;;;27.76;nan;97137.34;7395645;19;20018;-52
2024/03/02 03:45:34;;;;;;;1.70;0.70;;;;;;;27.65;nan;97132.66;7395510;19;20022;-52
2024/03/02 03:48:01;;;;;;;6.47;2.03;;;;;;;27.86;nan;97134.84;7395914;19;20058;-52
2024/03/02 03:50:27;;;;;;;0.73;0.70;;;;;;;27.90;nan;97129.25;7396432;19;20454;-52
2024/03/02 03:52:53;;;;;;;0.30;0.30;;;;;;;27.82;nan;97134.72;7393870;19;20022;-52
2024/03/02 03:55:19;;;;;;;2.55;0.75;;;;;;;27.89;nan;97139.25;7399821;19;20014;-52
2024/03/02 03:57:45;;;;;;;1.33;0.75;;;;;;;27.48;nan;97144.91;7394409;19;20023;-52
2024/03/02 04:00:12;;;;;;;2.58;1.52;;;;;;;27.46;nan;97148.41;7395133;19;20202;-52
2024/03/02 04:02:39;;;;;;;16.83;1.83;;;;;;;27.68;nan;97159.94;7394860;19;20130;-52
2024/03/02 04:05:08;;;;;;;1.75;1.20;;;;;;;27.59;nan;97161.03;7398991;19;20015;-52
2024/03/02 04:07:42;;;;;;;1.23;0.98;;;;;;;27.48;nan;97147.75;7395189;19;20023;-52
2024/03/02 04:10:10;;;;;;;4.15;1.48;;;;;;;27.14;nan;97161.44;7395060;19;20010;-52
2024/03/02 04:12:36;;;;;;;2.88;1.35;;;;;;;26.95;nan;97153.53;7393979;19;20014;-52
2024/03/02 04:15:06;;;;;;;2.00;0.82;;;;;;;26.89;nan;97159.75;7399056;19;20011;-52
2024/03/02 04:17:33;;;;;;;9.00;1.63;;;;;;;27.26;nan;97159.06;7394891;19;20015;-52
2024/03/02 04:20:00;;;;;;;1.40;0.60;;;;;;;27.44;nan;97159.75;7394800;19;20021;-52
2024/03/02 04:22:27;;;;;;;1.23;0.63;;;;;;;27.62;nan;97154.72;7395093;19;20014;-52
2024/03/02 04:24:54;;;;;;;0.88;0.60;;;;;;;27.49;nan;97152.06;7397387;19;20360;-52
2024/03/02 04:27:20;;;;;;;2.72;1.77;;;;;;;27.23;nan;97151.78;7394574;19;20485;-52
2024/03/02 04:29:46;;;;;;;2.60;2.03;;;;;;;27.16;nan;97152.94;7394184;19;20463;-52
2024/03/02 04:32:12;;;;;;;14.50;1.08;;;;;;;27.01;nan;97154.50;7396282;19;20354;-52
2024/03/02 04:34:38;;;;;;;0.90;0.63;;;;;;;27.33;nan;97148.59;7396881;19;20019;-52
2024/03/02 04:37:05;;;;;;;4.13;0.95;;;;;;;27.46;nan;97153.41;7393354;19;20088;-52
2024/03/02 04:39:31;;;;;;;0.98;0.70;;;;;;;27.54;nan;97153.69;7394889;19;20062;-52
2024/03/02 04:41:58;;;;;;;2.55;1.05;;;;;;;27.53;nan;97155.06;7393858;19;20324;-53
2024/03/02 04:44:24;;;;;;;2.20;1.15;;;;;;;27.66;nan;97152.00;7396028;19;20424;-52
2024/03/02 04:46:50;;;;;;;0.65;0.65;;;;;;;28.13;nan;97157.28;7394081;19;20411;-52
2024/03/02 04:49:16;;;;;;;4.07;0.85;;;;;;;28.08;nan;97152.84;7394572;19;20025;-52
2024/03/02 04:51:42;;;;;;;0.60;0.52;;;;;;;28.15;nan;97157.38;7398266;19;20011;-51
2024/03/02 04:54:08;;;;;;;9.45;0.95;;;;;;;27.94;nan;97157.31;7394800;19;20015;-52
2024/03/02 04:56:44;;;;;;;0.95;0.95;;;;;;;27.75;nan;97153.03;7393405;19;20438;-52
2024/03/02 04:59:10;;;;;;;4.30;1.88;;;;;;;27.73;nan;97144.38;7392692;19;20339;-52
2024/03/02 05:01:36;;;;;;;1.15;0.38;;;;;;;27.68;nan;97148.47;7395462;19;20011;-52
2024/03/02 05:04:03;;;;;;;3.40;1.85;;;;;;;27.70;nan;97151.41;7394281;19;20374;-53
2024/03/02 05:06:29;;;;;;;6.25;2.40;;;;;;;27.52;nan;97153.63;7393169;19;20342;-52
2024/03/02 05:08:56;;;;;;;6.70;1.02;;;;;;;27.54;nan;97156.56;7392461;19;20104;-52
2024/03/02 05:12:15;;;;;;;4.22;0.75;;;;;;;27.56;nan;97156.63;7392333;19;20018;-52
2024/03/02 05:14:15;;;;;;;1.17;0.73;;;;;;;27.47;nan;97152.00;7389934;19;20386;-52
2024/03/02 05:16:41;;;;;;;0.45;0.45;;;;;;;27.53;nan;97155.81;7394083;19;20025;-52
2024/03/02 05:19:08;;;;;;;1.05;0.90;;;;;;;27.58;nan;97151.72;7391491;19;20011;-52
2024/03/02 05:21:34;;;;;;;0.77;0.63;;;;;;;27.50;nan;97151.44;7390144;19;20357;-53
2024/03/02 05:24:00;;;;;;;13.32;1.55;;;;;;;27.54;nan;97145.84;7390482;19;20014;-52
2024/03/02 05:26:26;;;;;;;5.43;1.13;;;;;;;27.99;nan;97153.19;7389701;19;20007;-52
2024/03/02 05:28:53;;;;;;;8.15;1.13;;;;;;;27.55;nan;97147.31;7393512;19;20014;-52
2024/03/02 05:31:19;;;;;;;1.10;0.52;;;;;;;27.36;nan;97141.56;7392587;19;20342;-52
2024/03/02 05:33:45;;;;;;;5.25;1.73;;;;;;;27.02;nan;97150.28;7390941;19;20014;-52
2024/03/02 05:36:12;;;;;;;1.20;1.13;;;;;;;26.57;nan;97147.00;7393632;19;20026;-52
2024/03/02 05:38:38;;;;;;;4.20;1.17;;;;;;;26.53;nan;97146.81;7399745;19;20021;-52
2024/03/02 05:41:04;;;;;;;4.22;0.88;;;;;;;26.61;nan;97150.03;7403038;19;20014;-52
2024/03/02 05:43:30;;;;;;;3.30;1.02;;;;;;;26.82;nan;97149.47;7400408;19;20015;-52
2024/03/02 05:45:56;;;;;;;1.95;1.48;;;;;;;26.43;nan;97143.56;7399623;19;20010;-52
2024/03/02 05:48:22;;;;;;;6.75;1.52;;;;;;;26.72;nan;97149.06;7399469;19;20070;-51
2024/03/02 05:50:49;;;;;;;1.48;1.38;;;;;;;26.60;nan;97150.66;7401550;19;20010;-52
2024/03/02 05:53:15;;;;;;;2.85;1.20;;;;;;;26.47;nan;97146.56;7400905;19;20006;-52
2024/03/02 05:55:41;;;;;;;3.22;1.95;;;;;;;26.88;nan;97146.84;7399172;19;20014;-52
2024/03/02 06:00:52;;;;;;;1.30;0.85;;;;;;;27.72;nan;97142.94;7401316;19;20011;-52
2024/03/02 06:03:18;;;;;;;0.38;0.38;;;;;;;27.33;nan;97154.31;7398022;19;20039;-52
2024/03/02 06:05:44;;;;;;;6.93;1.67;;;;;;;27.26;nan;97146.88;7402901;19;20018;-53
2024/03/02 06:08:10;;;;;;;1.48;0.82;;;;;;;27.42;nan;97150.38;7398320;19;20383;-52
2024/03/02 06:10:36;;;;;;;3.60;1.30;;;;;;;27.67;nan;97147.78;7398700;19;20015;-52
2024/03/02 06:13:02;;;;;;;9.20;2.17;;;;;;;27.44;nan;97150.47;7396918;19;20074;-52
2024/03/02 06:15:28;;;;;;;3.33;2.00;;;;;;;27.30;nan;97149.91;7400400;19;20018;-52
2024/03/02 06:17:54;;;;;;;0.88;0.88;;;;;;;27.81;nan;97150.41;7398936;19;20015;-52
2024/03/02 06:20:21;;;;;;;2.85;1.25;;;;;;;27.71;nan;97158.63;7398502;19;20038;-52
2024/03/02 06:22:47;;;;;;;1.90;0.55;;;;;;;27.54;nan;97150.84;7398430;19;20017;-52
2024/03/02 06:25:13;;;;;;;2.22;0.75;;;;;;;27.44;nan;97148.31;7399825;19;20022;-52
2024/03/02 06:27:40;;;;;;;4.97;0.85;;;;;;;27.27;nan;97156.91;7398530;19;20082;-52
2024/03/02 06:30:06;;;;;;;2.67;1.00;;;;;;;27.21;nan;97148.84;7398352;19;20014;-52
2024/03/02 06:32:32;;;;;;;2.05;0.95;;;;;;;27.18;nan;97161.59;7397282;19;20465;-52
2024/03/02 06:34:59;;;;;;;0.70;0.70;;;;;;;27.14;nan;97155.00;7395534;19;20480;-79
2024/03/02 06:37:25;;;;;;;1.95;1.75;;;;;;;27.14;nan;97157.88;7393123;19;20014;-79
2024/03/02 06:39:51;;;;;;;2.97;1.63;;;;;;;27.13;nan;97153.53;7392891;19;20037;-80
2024/03/02 06:42:17;;;;;;;1.92;0.50;;;;;;;27.16;nan;97158.66;7391129;19;20011;-82
2024/03/02 06:44:43;;;;;;;1.42;0.60;;;;;;;27.17;nan;97156.53;7391664;19;20038;-80
2024/03/02 06:47:09;;;;;;;3.70;1.48;;;;;;;27.27;nan;97156.91;7392171;19;20046;-80
2024/03/02 06:49:36;;;;;;;4.32;1.48;;;;;;;26.98;nan;97155.81;7393195;19;20341;-80
2024/03/02 06:52:02;;;;;;;4.03;0.65;;;;;;;26.83;nan;97161.63;7396408;19;20025;-80
2024/03/02 06:54:28;;;;;;;2.08;1.33;;;;;;;27.05;nan;97166.09;7393379;19;20463;-80
2024/03/02 06:56:54;;;;;;;1.92;0.98;;;;;;;26.58;nan;97165.59;7393663;19;20469;-80
2024/03/02 06:59:20;;;;;;;2.28;1.45;;;;;;;26.60;nan;97168.53;7392842;19;20020;-80
2024/03/02 07:01:46;;;;;;;5.22;1.75;;;;;;;26.37;nan;97163.28;7396640;19;20367;-80
2024/03/02 07:04:12;;;;;;;0.43;0.43;;;;;;;26.22;nan;97164.81;7394940;19;20037;-80
2024/03/02 07:06:39;;;;;;;0.70;0.70;;;;;;;26.44;nan;97165.03;7389992;19;20042;-80
2024/03/02 07:09:05;;;;;;;8.35;1.55;;;;;;;26.29;nan;97165.81;7392994;19;20082;-79
2024/03/02 07:11:31;;;;;;;2.75;1.73;;;;;;;26.39;nan;97160.53;7394809;19;20363;-80
2024/03/02 07:13:57;;;;;;;0.90;0.65;;;;;;;26.13;nan;97167.97;7392983;19;20026;-80
2024/03/02 07:16:29;;;;;;;6.63;1.30;;;;;;;25.24;nan;97160.34;7391570;19;20014;-80
2024/03/02 07:18:56;;;;;;;2.58;1.83;;;;;;;25.07;nan;97167.41;7393108;19;20497;-80
2024/03/02 07:21:23;;;;;;;0.68;0.68;;;;;;;25.49;nan;97166.53;7392225;19;20034;-80
2024/03/02 07:23:49;;;;;;;9.77;2.13;;;;;;;26.13;nan;97163.00;7393063;19;20022;-80
2024/03/02 07:26:18;;;;;;;2.70;0.88;;;;;;;26.08;nan;97166.28;7392955;19;20029;-80
2024/03/02 07:28:46;;;;;;;1.95;1.23;;;;;;;25.80;nan;97156.50;7393339;19;20403;-81
2024/03/02 07:31:12;;;;;;;5.68;1.35;;;;;;;25.78;nan;97154.31;7393128;19;20022;-80
2024/03/02 07:33:38;;;;;;;3.20;0.47;;;;;;;25.70;nan;97156.06;7393528;19;20014;-80
2024/03/02 07:36:04;;;;;;;3.40;1.15;;;;;;;25.66;nan;97148.06;7391004;19;20015;-81
2024/03/02 07:38:33;;;;;;;5.50;3.00;;;;;;;25.74;nan;97156.97;7391671;19;20051;-80
2024/03/02 07:41:00;;;;;;;2.13;0.93;;;;;;;25.20;nan;97151.63;7392779;19;20086;-80
2024/03/02 07:43:26;;;;;;;2.53;1.38;;;;;;;23.91;nan;97157.38;7391165;19;20010;-80
2024/03/02 07:45:52;;;;;;;2.28;1.45;;;;;;;23.71;nan;97164.13;7394459;19;20041;-80
2024/03/02 07:48:19;;;;;;;3.55;1.58;;;;;;;22.90;nan;97173.19;7392993;19;20016;-80
2024/03/02 07:50:45;;;;;;;2.78;1.65;;;;;;;22.58;nan;97172.09;7392213;19;20491;-80
2024/03/02 07:53:11;;;;;;;3.95;1.15;;;;;;;22.70;nan;97167.13;7389112;19;20014;-80
2024/03/02 07:55:37;;;;;;;2.85;0.75;;;;;;;23.89;nan;97174.31;7391393;19;20021;-80
2024/03/02 07:58:04;;;;;;;13.35;1.95;;;;;;;23.54;nan;97168.19;7396420;19;20022;-80
2024/03/02 08:00:30;;;;;;;2.00;1.52;;;;;;;23.42;nan;97163.97;7390462;19;20018;-80
2024/03/02 08:02:56;;;;;;;0.57;0.55;;;;;;;24.02;nan;97162.19;7391065;19;20010;-81
2024/03/02 08:05:22;;;;;;;2.80;1.17;;;;;;;22.91;nan;97164.06;7390111;19;20022;-81
2024/03/02 08:07:52;;;;;;;8.18;2.17;;;;;;;22.85;nan;97163.00;7395063;19;20496;-81
2024/03/02 08:10:19;;;;;;;0.82;0.82;;;;;;;22.58;nan;97164.31;7392273;19;20006;-80
2024/03/02 08:12:45;;;;;;;4.60;1.38;;;;;;;23.17;nan;97162.63;7393134;19;20018;-81
2024/03/02 08:15:14;;;;;;;2.53;0.82;;;;;;;23.20;nan;97152.13;7390568;19;20018;-81
2024/03/02 08:17:45;;;;;;;1.42;0.85;;;;;;;22.46;nan;97160.78;7390226;19;20019;-81
2024/03/02 08:20:12;;;;;;;2.25;1.17;;;;;;;22.34;nan;97156.50;7396092;19;20014;-80
2024/03/02 08:22:38;;;;;;;1.30;1.10;;;;;;;21.97;nan;97145.16;7389818;19;20014;-80
2024/03/02 08:25:04;;;;;;;2.83;0.70;;;;;;;22.03;nan;97148.34;7389933;19;20471;-81
2024/03/02 08:27:32;;;;;;;2.70;0.80;;;;;;;21.75;nan;97149.47;7391956;19;20031;-80
2024/03/02 08:29:58;;;;;;;9.02;1.30;;;;;;;21.91;nan;97153.31;7392919;19;20022;-81
2024/03/02 08:32:24;;;;;;;3.30;0.57;;;;;;;21.45;nan;97156.16;7395442;19;20360;-82
2024/03/02 08:34:50;;;;;;;1.00;0.70;;;;;;;21.56;nan;97150.50;7393148;19;20030;-80
2024/03/02 08:37:17;;;;;;;1.00;0.38;;;;;;;21.44;nan;97158.22;7391823;19;20022;-80
2024/03/02 08:39:45;;;;;;;1.25;1.15;;;;;;;21.85;nan;97150.13;7392548;19;20523;-80
2024/03/02 08:42:11;;;;;;;1.75;0.85;;;;;;;22.04;nan;97144.16;7389784;19;20037;-80
2024/03/02 08:44:37;;;;;;;3.10;1.52;;;;;;;23.14;nan;97160.31;7388843;19;20022;-81
2024/03/02 08:47:03;;;;;;;1.55;0.55;;;;;;;22.52;nan;97152.59;7389846;19;20086;-83
2024/03/02 08:49:30;;;;;;;0.80;0.50;;;;;;;23.15;nan;97153.28;7390849;19;20085;-81
2024/03/02 08:51:56;;;;;;;4.47;1.17;;;;;;;23.41;nan;97151.16;7396202;19;20035;-81
2024/03/02 08:54:22;;;;;;;0.73;0.20;;;;;;;23.34;nan;97158.63;7390916;19;20284;-81
2024/03/02 08:56:49;;;;;;;0.80;0.63;;;;;;;23.59;nan;97161.38;7390343;19;20018;-81
2024/03/02 08:59:16;;;;;;;0.32;0.32;;;;;;;23.29;nan;97151.22;7388858;19;20010;-81
2024/03/02 09:01:43;;;;;;;1.42;1.33;;;;;;;23.59;nan;97157.78;7391941;19;20300;-82
2024/03/02 09:04:09;;;;;;;1.33;0.80;;;;;;;23.47;nan;97152.22;7389959;19;20014;-81
2024/03/02 09:06:35;;;;;;;0.82;0.57;;;;;;;23.56;nan;97142.75;7387363;19;20078;-87
2024/03/02 09:09:01;;;;;;;1.45;0.52;;;;;;;23.65;nan;97147.47;7390061;19;20094;-85
2024/03/02 09:11:27;;;;;;;0.10;0.10;;;;;;;23.52;nan;97145.38;7386100;19;20341;-84
2024/03/02 09:13:54;;;;;;;0.68;0.47;;;;;;;23.55;nan;97138.44;7388170;19;20019;-80
2024/03/02 09:16:20;;;;;;;0.40;0.30;;;;;;;24.51;nan;97130.53;7387751;19;20042;-80
2024/03/02 09:18:47;;;;;;;0.20;0.20;;;;;;;24.14;nan;97127.25;7387387;19;20296;-79
2024/03/02 09:21:13;;;;;;;0.57;0.50;;;;;;;24.36;nan;97125.50;7386100;19;20029;-79
2024/03/02 09:23:40;;;;;;;0.45;0.40;;;;;;;24.24;nan;97134.19;7383766;19;20040;-80
2024/03/02 09:26:06;;;;;;;1.65;0.68;;;;;;;24.54;nan;97129.22;7389114;19;20476;-80
2024/03/02 09:28:32;;;;;;;4.50;1.45;;;;;;;24.69;nan;97134.22;7389069;19;20010;-85
2024/03/02 09:31:00;;;;;;;0.82;0.57;;;;;;;24.47;nan;97127.47;7391986;19;20055;-83
2024/03/02 09:33:26;;;;;;;1.48;0.20;;;;;;;24.56;nan;97149.28;7387061;19;20074;-87
2024/03/02 09:35:52;;;;;;;1.17;0.75;;;;;;;25.07;nan;97138.94;7385601;19;20356;-86
2024/03/02 09:38:18;;;;;;;0.10;0.10;;;;;;;25.92;nan;97137.09;7383915;19;20021;-85
2024/03/02 09:40:46;;;;;;;0.32;0.30;;;;;;;25.44;nan;97139.25;7386501;19;20661;-84
2024/03/02 09:43:13;;;;;;;1.15;0.68;;;;;;;24.95;nan;97132.66;7386626;19;20082;-84
2024/03/02 09:45:39;;;;;;;0.55;0.55;;;;;;;25.07;nan;97121.84;7386349;19;20019;-83
2024/03/02 09:48:06;;;;;;;0.50;0.30;;;;;;;25.50;nan;97128.13;7393821;19;20018;-82
2024/03/02 09:50:32;;;;;;;0.38;0.38;;;;;;;25.70;nan;97127.56;7389898;19;20011;-82
2024/03/02 09:52:59;;;;;;;3.30;0.85;;;;;;;24.72;nan;97132.97;7388758;19;20046;-82
2024/03/02 09:55:25;;;;;;;1.27;0.93;;;;;;;23.88;nan;97140.84;7385415;19;20050;-83
2024/03/02 09:57:51;;;;;;;0.20;0.20;;;;;;;23.48;nan;97133.78;7387968;19;20022;-83
2024/03/02 10:00:17;;;;;;;0.85;0.65;;;;;;;22.31;nan;97143.56;7391506;19;20349;-82
2024/03/02 10:02:44;;;;;;;0.80;0.15;;;;;;;22.96;nan;97145.13;7387236;19;20018;-81
2024/03/02 10:05:11;;;;;;;0.73;0.50;;;;;;;22.82;nan;97144.38;7388241;19;20466;-82
2024/03/02 10:07:38;;;;;;;1.42;0.22;;;;;;;23.58;nan;97137.19;7387092;19;20018;-81
2024/03/02 10:10:15;;;;;;;2.72;0.77;;;;;;;23.76;nan;97126.75;7385988;19;20014;-84
2024/03/02 10:12:41;;;;;;;0.75;0.70;;;;;;;23.53;nan;97124.13;7387928;19;20021;-83
2024/03/02 10:15:09;;;;;;;4.40;0.77;;;;;;;22.94;nan;97122.31;7386408;19;20036;-83
2024/03/02 10:17:35;;;;;;;0.50;0.40;;;;;;;21.87;nan;97119.78;7386617;19;20037;-82
2024/03/02 10:20:24;;;;;;;0.20;0.20;;;;;;;21.39;nan;97128.22;7388883;19;20015;-82
2024/03/02 10:22:50;;;;;;;0.40;0.40;;;;;;;21.77;nan;97132.59;7391742;19;20022;-80
2024/03/02 10:25:33;;;;;;;0.63;0.60;;;;;;;22.99;nan;97126.84;7392679;19;20014;-78
2024/03/02 10:27:59;;;;;;;1.30;0.50;;;;;;;23.18;nan;97118.69;7394004;19;20030;-78
2024/03/02 10:30:29;;;;;;;1.80;1.35;;;;;;;23.90;nan;97121.78;7396072;19;20031;-78
2024/03/02 10:32:55;;;;;;;2.13;1.80;;;;;;;23.12;nan;97126.16;7393372;19;20022;-78
2024/03/02 10:35:23;;;;;;;0.40;0.40;;;;;;;22.11;nan;97125.41;7394312;19;20018;-84
2024/03/02 10:37:50;;;;;;;0.88;0.60;;;;;;;20.38;nan;97126.75;7395189;19;20070;-85
2024/03/02 10:40:16;;;;;;;0.60;0.60;;;;;;;20.38;nan;97127.50;7396575;19;20026;-86
2024/03/02 10:42:44;;;;;;;1.52;0.90;;;;;;;19.89;nan;97130.56;7397138;19;20341;-89
2024/03/02 10:45:12;;;;;;;0.55;0.40;;;;;;;19.12;nan;97128.13;7393229;19;20027;-79
2024/03/02 10:47:38;;;;;;;0.20;0.20;;;;;;;18.75;nan;97124.09;7395390;19;20351;-79
2024/03/02 10:50:08;;;;;;;0.15;0.15;;;;;;;20.01;nan;97128.53;7395640;19;20363;-78
2024/03/02 10:52:38;;;;;;;2.65;1.00;;;;;;;21.00;nan;97132.84;7393839;19;20021;-80
2024/03/02 10:55:09;;;;;;;1.83;0.90;;;;;;;20.57;nan;97129.44;7392382;19;20345;-79
2024/03/02 10:57:42;;;;;;;0.65;0.57;;;;;;;20.19;nan;97126.91;7393002;19;20027;-79
2024/03/02 11:00:14;;;;;;;0.40;0.40;;;;;;;18.93;nan;97133.84;7396140;19;20014;-79
2024/03/02 11:02:49;;;;;;;1.70;1.60;;;;;;;19.40;nan;97129.38;7393498;19;20006;-78
2024/03/02 11:05:27;;;;;;;5.78;1.88;;;;;;;19.04;nan;97132.44;7393179;19;20031;-79
2024/03/02 11:08:13;;;;;;;1.10;1.00;;;;;;;21.55;nan;97125.63;7392629;19;20014;-79
2024/03/02 11:10:53;;;;;;;0.82;0.20;;;;;;;20.49;nan;97134.53;7394233;19;20022;-79
2024/03/02 11:13:33;;;;;;;1.10;0.68;;;;;;;20.26;nan;97137.28;7391184;19;20022;-79
2024/03/02 11:16:10;;;;;;;2.43;0.73;;;;;;;22.84;nan;97124.59;7391733;19;20082;-79
2024/03/02 11:18:37;;;;;;;0.40;0.40;;;;;;;23.44;nan;97135.69;7395017;19;20110;-78
2024/03/02 11:21:03;;;;;;;3.53;0.60;;;;;;;23.63;nan;97133.16;7392981;19;20492;-79
2024/03/02 11:23:34;;;;;;;1.17;0.68;;;;;;;23.87;nan;97134.41;7398721;19;20018;-79
2024/03/02 11:26:19;;;;;;;0.32;0.30;;;;;;;23.39;nan;97137.56;7392335;19;20484;-78
2024/03/02 11:28:45;;;;;;;0.82;0.73;;;;;;;22.14;nan;97135.50;7391862;19;20023;-79
2024/03/02 11:31:12;;;;;;;8.75;1.02;;;;;;;23.59;nan;97129.38;7392506;19;20014;-79
2024/03/02 11:33:38;;;;;;;0.68;0.40;;;;;;;22.57;nan;97134.47;7389660;19;20105;-79
2024/03/02 11:36:06;;;;;;;2.70;1.23;;;;;;;21.78;nan;97128.41;7388699;19;20022;-79
2024/03/02 11:38:34;;;;;;;0.60;0.52;;;;;;;20.24;nan;97125.84;7392437;19;20025;-78
2024/03/02 11:41:08;;;;;;;0.73;0.73;;;;;;;20.25;nan;97127.31;7393573;19;20011;-79
2024/03/02 11:43:39;;;;;;;0.45;0.30;;;;;;;20.70;nan;97140.16;7391663;19;20368;-80
2024/03/02 11:46:08;;;;;;;5.72;0.98;;;;;;;20.19;nan;97130.47;7391383;19;20472;-80
2024/03/02 11:48:37;;;;;;;0.52;0.52;;;;;;;21.77;nan;97133.34;7392526;19;20040;-79
2024/03/02 11:51:03;;;;;;;0.50;0.50;;;;;;;22.56;nan;97135.84;7391916;19;20010;-79
2024/03/02 11:53:32;;;;;;;0.50;0.50;;;;;;;22.59;nan;97126.09;7394864;19;20487;-79